createdAt,value
2022-12-01T00:01:22.133Z,21.45
2022-12-01T00:03:49.825Z,21.50
2022-12-01T00:06:19.946Z,22.35
2022-12-01T00:09:04.702Z,21.00
2022-12-01T00:11:32.809Z,19.02
2022-12-01T00:14:01.665Z,19.77
2022-12-01T00:16:29.356Z,20.00
2022-12-01T00:18:57.758Z,21.98
2022-12-01T00:21:26.412Z,20.13
2022-12-01T00:23:56.579Z,21.80
2022-12-01T00:26:25.119Z,19.42
2022-12-01T00:28:56.022Z,21.17
2022-12-01T00:31:23.437Z,20.98
2022-12-01T00:33:51.499Z,18.55
2022-12-01T00:36:19.234Z,17.55
2022-12-01T00:38:47.106Z,20.67
2022-12-01T00:41:14.628Z,20.33
2022-12-01T00:43:42.580Z,20.95
2022-12-01T00:46:10.050Z,19.77
2022-12-01T00:48:37.719Z,21.83
2022-12-01T00:51:05.410Z,22.40
2022-12-01T00:53:33.580Z,20.33
2022-12-01T00:56:00.935Z,21.60
2022-12-01T00:58:28.898Z,17.85
2022-12-01T01:01:01.468Z,20.58
2022-12-01T01:03:30.395Z,20.30
2022-12-01T01:06:08.157Z,20.88
2022-12-01T01:08:36.003Z,21.98
2022-12-01T01:11:04.544Z,22.27
2022-12-01T01:13:32.512Z,19.92
2022-12-01T01:16:01.831Z,20.30
2022-12-01T01:18:29.721Z,23.58
2022-12-01T01:21:06.018Z,20.77
2022-12-01T01:23:34.880Z,21.27
2022-12-01T01:26:12.578Z,23.70
2022-12-01T01:28:41.966Z,23.13
2022-12-01T01:31:11.526Z,19.33
2022-12-01T01:33:39.493Z,21.25
2022-12-01T01:36:07.169Z,20.98
2022-12-01T01:38:35.894Z,21.60
2022-12-01T01:41:04.754Z,21.23
2022-12-01T01:43:54.223Z,20.98
2022-12-01T01:46:28.982Z,19.83
2022-12-01T01:49:00.500Z,22.58
2022-12-01T01:51:55.564Z,22.33
2022-12-01T01:54:31.784Z,21.40
2022-12-01T01:57:02.452Z,21.25
2022-12-01T01:59:47.679Z,21.15
2022-12-01T02:02:15.519Z,19.75
2022-12-01T02:04:47.706Z,19.98
2022-12-01T02:07:18.775Z,19.90
2022-12-01T02:09:46.561Z,20.05
2022-12-01T02:12:44.008Z,22.33
2022-12-01T02:15:30.950Z,22.25
2022-12-01T02:18:01.050Z,19.55
2022-12-01T02:20:50.656Z,21.20
2022-12-01T02:23:31.825Z,22.30
2022-12-01T02:26:16.194Z,21.10
2022-12-01T02:28:56.566Z,21.75
2022-12-01T02:31:31.429Z,18.42
2022-12-01T02:34:12.899Z,19.27
2022-12-01T02:36:52.809Z,20.40
2022-12-01T02:39:32.736Z,20.05
2022-12-01T02:42:39.714Z,20.65
2022-12-01T02:45:13.893Z,19.63
2022-12-01T02:47:45.062Z,19.45
2022-12-01T02:50:13.636Z,17.48
2022-12-01T02:52:42.964Z,20.23
2022-12-01T02:55:10.547Z,19.13
2022-12-01T02:57:38.211Z,17.75
2022-12-01T03:00:06.961Z,19.02
2022-12-01T03:02:49.637Z,19.67
2022-12-01T03:05:26.876Z,18.00
2022-12-01T03:08:14.138Z,19.95
2022-12-01T03:10:56.955Z,18.00
2022-12-01T03:13:56.359Z,18.35
2022-12-01T03:16:41.407Z,16.38
2022-12-01T03:19:18.821Z,17.55
2022-12-01T03:22:20.365Z,16.70
2022-12-01T03:24:49.603Z,17.15
2022-12-01T03:27:22.578Z,16.80
2022-12-01T03:29:55.098Z,16.77
2022-12-01T03:32:29.495Z,14.65
2022-12-01T03:35:04.995Z,16.33
2022-12-01T03:37:38.070Z,16.60
2022-12-01T03:40:08.912Z,18.25
2022-12-01T03:42:45.092Z,14.90
2022-12-01T03:45:17.916Z,16.20
2022-12-01T03:47:46.152Z,16.23
2022-12-01T03:50:14.757Z,15.93
2022-12-01T03:52:59.992Z,17.83
2022-12-01T03:55:30.649Z,17.42
2022-12-01T03:58:06.377Z,17.55
2022-12-01T04:00:35.907Z,15.70
2022-12-01T04:03:04.581Z,16.95
2022-12-01T04:05:34.747Z,15.73
2022-12-01T04:08:02.498Z,16.90
2022-12-01T04:10:30.430Z,15.30
2022-12-01T04:12:59.825Z,17.63
2022-12-01T04:15:28.582Z,16.77
2022-12-01T04:17:55.910Z,14.40
2022-12-01T04:20:23.890Z,17.77
2022-12-01T04:22:51.562Z,17.40
2022-12-01T04:25:19.280Z,16.08
2022-12-01T04:27:46.931Z,15.30
2022-12-01T04:30:15.114Z,16.35
2022-12-01T04:32:44.058Z,17.38
2022-12-01T04:35:12.930Z,16.67
2022-12-01T04:37:40.433Z,16.27
2022-12-01T04:40:08.972Z,16.35
2022-12-01T04:42:36.551Z,15.73
2022-12-01T04:45:04.739Z,15.68
2022-12-01T04:47:32.161Z,15.52
2022-12-01T04:50:00.593Z,14.88
2022-12-01T04:52:33.616Z,15.30
2022-12-01T04:55:03.915Z,14.32
2022-12-01T04:57:31.164Z,16.65
2022-12-01T04:59:58.825Z,17.77
2022-12-01T05:02:26.328Z,17.27
2022-12-01T05:04:54.167Z,17.70
2022-12-01T05:07:21.501Z,17.85
2022-12-01T05:09:49.376Z,17.48
2022-12-01T05:12:17.583Z,16.90
2022-12-01T05:14:46.372Z,15.88
2022-12-01T05:17:13.802Z,14.70
2022-12-01T05:19:55.565Z,14.90
2022-12-01T05:22:56.787Z,15.82
2022-12-01T05:25:11.195Z,16.58
2022-12-01T05:27:38.625Z,16.23
2022-12-01T05:30:06.835Z,17.73
2022-12-01T05:32:34.297Z,16.90
2022-12-01T05:35:02.357Z,16.15
2022-12-01T05:37:33.584Z,16.80
2022-12-01T05:40:02.324Z,16.02
2022-12-01T05:42:29.798Z,24.35
2022-12-01T05:44:57.462Z,25.38
2022-12-01T05:47:25.107Z,24.02
2022-12-01T05:49:52.757Z,24.42
2022-12-01T05:52:20.279Z,24.23
2022-12-01T05:54:47.979Z,25.58
2022-12-01T05:57:15.243Z,26.83
2022-12-01T05:59:42.950Z,25.15
2022-12-01T06:02:10.548Z,27.25
2022-12-01T06:04:38.319Z,25.67
2022-12-01T06:07:05.770Z,27.02
2022-12-01T06:09:33.719Z,23.45
2022-12-01T06:12:01.046Z,26.42
2022-12-01T06:14:28.537Z,26.83
2022-12-01T06:16:56.001Z,26.80
2022-12-01T06:19:23.976Z,28.70
2022-12-01T06:21:51.524Z,27.80
2022-12-01T06:24:19.739Z,26.70
2022-12-01T06:26:47.121Z,28.23
2022-12-01T06:29:14.992Z,26.13
2022-12-01T06:31:42.774Z,27.77
2022-12-01T06:34:11.022Z,27.65
2022-12-01T06:36:38.638Z,28.92
2022-12-01T06:39:10.371Z,28.48
2022-12-01T06:41:38.863Z,28.98
2022-12-01T06:44:06.742Z,30.10
2022-12-01T06:46:34.378Z,29.30
2022-12-01T06:49:02.529Z,29.23
2022-12-01T06:51:31.567Z,27.90
2022-12-01T06:54:05.048Z,28.08
2022-12-01T06:56:33.159Z,28.52
2022-12-01T06:59:01.270Z,26.30
2022-12-01T07:01:28.886Z,27.10
2022-12-01T07:03:56.807Z,25.95
2022-12-01T07:06:24.377Z,26.40
2022-12-01T07:08:53.323Z,27.23
2022-12-01T07:11:20.665Z,27.52
2022-12-01T07:13:50.614Z,28.02
2022-12-01T07:16:18.729Z,27.38
2022-12-01T07:18:46.417Z,25.95
2022-12-01T07:21:15.302Z,25.13
2022-12-01T07:23:43.449Z,27.30
2022-12-01T07:26:13.465Z,30.13
2022-12-01T07:28:41.623Z,24.17
2022-12-01T07:31:14.722Z,27.40
2022-12-01T07:33:42.938Z,28.08
2022-12-01T07:36:12.052Z,28.13
2022-12-01T07:38:39.918Z,28.48
2022-12-01T07:41:21.277Z,24.70
2022-12-01T07:43:51.233Z,28.98
2022-12-01T07:46:25.189Z,24.83
2022-12-01T07:48:54.349Z,26.92
2022-12-01T07:51:24.157Z,25.27
2022-12-01T07:53:52.727Z,25.40
2022-12-01T07:56:21.576Z,24.27
2022-12-01T07:58:49.423Z,24.17
2022-12-01T08:01:19.697Z,22.05
2022-12-01T08:03:52.037Z,23.08
2022-12-01T08:06:20.235Z,20.63
2022-12-01T08:08:48.654Z,21.27
2022-12-01T08:11:21.482Z,21.13
2022-12-01T08:13:50.622Z,20.65
2022-12-01T08:16:20.445Z,22.25
2022-12-01T08:18:48.608Z,20.38
2022-12-01T08:21:18.444Z,21.00
2022-12-01T08:23:46.816Z,21.00
2022-12-01T08:26:17.173Z,20.48
2022-12-01T08:28:45.947Z,21.23
2022-12-01T08:31:16.864Z,21.35
2022-12-01T08:33:44.906Z,20.58
2022-12-01T08:36:12.502Z,19.85
2022-12-01T08:38:42.857Z,20.70
2022-12-01T08:41:10.400Z,20.45
2022-12-01T08:43:58.003Z,20.63
2022-12-01T08:46:33.199Z,22.38
2022-12-01T08:49:02.123Z,22.30
2022-12-01T08:51:29.729Z,21.25
2022-12-01T08:53:59.036Z,18.25
2022-12-01T08:56:30.091Z,21.90
2022-12-01T08:58:58.345Z,21.60
2022-12-01T09:01:26.681Z,19.35
2022-12-01T09:04:06.138Z,22.13
2022-12-01T09:06:39.669Z,20.38
2022-12-01T09:09:09.721Z,14.02
2022-12-01T09:11:37.640Z,12.63
2022-12-01T09:14:05.353Z,14.00
2022-12-01T09:16:32.957Z,11.68
2022-12-01T09:19:00.879Z,14.15
2022-12-01T09:21:32.909Z,12.48
2022-12-01T09:24:01.801Z,14.23
2022-12-01T09:26:29.815Z,10.85
2022-12-01T09:29:02.777Z,11.90
2022-12-01T09:31:30.946Z,12.05
2022-12-01T09:34:04.696Z,12.43
2022-12-01T09:36:34.213Z,12.20
2022-12-01T09:39:03.163Z,11.57
2022-12-01T09:41:32.998Z,11.27
2022-12-01T09:44:15.460Z,13.85
2022-12-01T09:47:03.762Z,13.00
2022-12-01T09:49:43.238Z,13.27
2022-12-01T09:52:14.076Z,11.40
2022-12-01T09:54:42.017Z,11.43
2022-12-01T09:57:32.385Z,12.27
2022-12-01T10:00:05.142Z,14.10
2022-12-01T10:03:01.843Z,13.43
2022-12-01T10:08:05.904Z,11.65
2022-12-01T10:13:08.628Z,13.05
2022-12-01T10:16:04.283Z,13.65
2022-12-01T10:18:34.650Z,13.23
2022-12-01T10:21:16.543Z,13.27
2022-12-01T10:24:04.199Z,11.85
2022-12-01T10:26:44.478Z,12.82
2022-12-01T10:29:25.889Z,13.15
2022-12-01T10:31:54.864Z,14.70
2022-12-01T10:34:29.518Z,13.13
2022-12-01T10:36:58.088Z,12.32
2022-12-01T10:39:38.829Z,12.15
2022-12-01T10:42:12.140Z,14.15
2022-12-01T10:44:40.555Z,13.30
2022-12-01T10:47:24.023Z,16.52
2022-12-01T10:49:52.569Z,18.85
2022-12-01T10:52:38.678Z,20.92
2022-12-01T10:55:23.221Z,15.68
2022-12-01T10:57:52.653Z,13.52
2022-12-01T11:00:58.083Z,13.10
2022-12-01T11:03:22.736Z,11.73
2022-12-01T11:05:58.362Z,15.75
2022-12-01T11:08:35.167Z,13.32
2022-12-01T11:11:02.952Z,14.52
2022-12-01T11:13:35.481Z,12.13
2022-12-01T11:16:06.282Z,12.13
2022-12-01T11:18:38.820Z,11.85
2022-12-01T11:21:27.208Z,12.52
2022-12-01T11:23:56.704Z,12.55
2022-12-01T11:26:28.676Z,15.18
2022-12-01T11:29:03.327Z,15.25
2022-12-01T11:31:49.018Z,14.32
2022-12-01T11:34:34.417Z,14.48
2022-12-01T11:37:09.481Z,15.50
2022-12-01T11:39:40.221Z,16.35
2022-12-01T11:42:29.062Z,13.13
2022-12-01T11:45:24.999Z,12.90
2022-12-01T11:48:05.524Z,13.13
2022-12-01T11:50:38.473Z,13.77
2022-12-01T11:53:29.980Z,14.32
2022-12-01T11:56:16.102Z,12.95
2022-12-01T11:58:45.602Z,14.95
2022-12-01T12:01:39.559Z,14.65
2022-12-01T12:04:23.695Z,14.55
2022-12-01T12:06:58.305Z,14.77
2022-12-01T12:09:32.037Z,14.20
2022-12-01T12:12:27.433Z,13.18
2022-12-01T12:15:06.213Z,14.27
2022-12-01T12:17:47.858Z,13.50
2022-12-01T12:20:29.442Z,14.30
2022-12-01T12:23:03.603Z,13.07
2022-12-01T12:25:57.958Z,13.75
2022-12-01T12:28:53.819Z,14.32
2022-12-01T12:31:33.777Z,15.10
2022-12-01T12:34:22.978Z,15.00
2022-12-01T12:37:05.458Z,14.13
2022-12-01T12:40:00.969Z,14.77
2022-12-01T12:42:52.221Z,13.32
2022-12-01T12:45:52.568Z,15.68
2022-12-01T12:48:50.850Z,13.43
2022-12-01T12:51:36.556Z,12.75
2022-12-01T12:54:24.120Z,13.90
2022-12-01T12:57:06.004Z,13.70
2022-12-01T12:59:39.575Z,13.05
2022-12-01T13:02:33.552Z,15.15
2022-12-01T13:05:21.232Z,15.55
2022-12-01T13:08:06.569Z,13.85
2022-12-01T13:10:47.253Z,14.85
2022-12-01T13:13:31.795Z,13.98
2022-12-01T13:16:02.885Z,14.25
2022-12-01T13:18:39.384Z,13.32
2022-12-01T13:21:09.498Z,12.73
2022-12-01T13:23:39.408Z,14.27
2022-12-01T13:26:09.538Z,13.43
2022-12-01T13:28:57.964Z,12.77
2022-12-01T13:31:25.726Z,13.88
2022-12-01T13:34:02.901Z,13.35
2022-12-01T13:36:46.622Z,14.13
2022-12-01T13:39:21.585Z,14.38
2022-12-01T13:41:59.374Z,13.18
2022-12-01T13:44:42.250Z,13.15
2022-12-01T13:47:12.803Z,12.80
2022-12-01T13:49:45.632Z,13.82
2022-12-01T13:52:16.416Z,13.63
2022-12-01T13:55:02.655Z,13.18
2022-12-01T13:57:33.127Z,13.57
2022-12-01T14:00:00.595Z,13.40
2022-12-01T14:02:31.549Z,12.35
2022-12-01T14:05:23.484Z,12.68
2022-12-01T14:07:52.425Z,13.88
2022-12-01T14:10:30.394Z,12.45
2022-12-01T14:13:05.059Z,14.52
2022-12-01T14:15:43.014Z,14.07
2022-12-01T14:18:38.077Z,13.02
2022-12-01T14:21:10.658Z,14.38
2022-12-01T14:23:58.678Z,13.27
2022-12-01T14:26:31.813Z,15.50
2022-12-01T14:29:02.639Z,13.60
2022-12-01T14:31:36.614Z,13.55
2022-12-01T14:34:35.740Z,14.32
2022-12-01T14:37:14.052Z,13.73
2022-12-01T14:39:57.901Z,13.68
2022-12-01T14:42:56.641Z,13.75
2022-12-01T14:45:55.759Z,14.25
2022-12-01T14:48:41.038Z,13.32
2022-12-01T14:51:26.591Z,13.65
2022-12-01T14:53:57.655Z,14.77
2022-12-01T14:56:26.330Z,14.57
2022-12-01T14:58:57.020Z,13.50
2022-12-01T15:01:31.164Z,14.45
2022-12-01T15:04:01.046Z,13.80
2022-12-01T15:06:30.928Z,14.68
2022-12-01T15:12:05.068Z,14.32
2022-12-01T15:14:38.346Z,13.10
2022-12-01T15:17:09.199Z,14.23
2022-12-01T15:19:40.249Z,15.27
2022-12-01T15:22:15.651Z,14.60
2022-12-01T15:24:44.388Z,13.43
2022-12-01T15:27:27.806Z,14.00
2022-12-01T15:32:24.975Z,14.32
2022-12-01T15:34:55.780Z,14.30
2022-12-01T15:37:26.202Z,14.15
2022-12-01T15:40:43.471Z,14.93
2022-12-01T15:43:14.533Z,16.35
2022-12-01T15:45:59.463Z,14.20
2022-12-01T15:48:34.397Z,16.77
2022-12-01T15:51:17.525Z,14.50
2022-12-01T15:53:59.017Z,14.55
2022-12-01T15:56:31.556Z,14.40
2022-12-01T15:59:14.173Z,13.65
2022-12-01T16:01:44.483Z,16.58
2022-12-01T16:04:27.246Z,15.20
2022-12-01T16:07:06.266Z,14.52
2022-12-01T16:09:56.380Z,13.40
2022-12-01T16:12:26.706Z,14.10
2022-12-01T16:15:10.616Z,15.00
2022-12-01T16:17:52.790Z,14.70
2022-12-01T16:20:23.495Z,15.35
2022-12-01T16:23:19.549Z,15.60
2022-12-01T16:25:48.871Z,16.17
2022-12-01T16:28:37.222Z,16.58
2022-12-01T16:31:08.295Z,14.70
2022-12-01T16:33:39.036Z,11.90
2022-12-01T16:36:07.918Z,11.82
2022-12-01T16:38:35.672Z,11.93
2022-12-01T16:41:18.593Z,14.68
2022-12-01T16:43:59.400Z,17.20
2022-12-01T16:46:34.331Z,15.40
2022-12-01T16:49:01.948Z,17.75
2022-12-01T16:51:54.105Z,18.10
2022-12-01T16:54:18.185Z,15.25
2022-12-01T16:56:45.687Z,12.98
2022-12-01T16:59:14.226Z,14.30
2022-12-01T17:01:41.647Z,13.30
2022-12-01T17:04:09.370Z,13.27
2022-12-01T17:06:38.475Z,14.23
2022-12-01T17:09:06.146Z,13.23
2022-12-01T17:11:33.810Z,14.00
2022-12-01T17:14:01.460Z,13.30
2022-12-01T17:16:29.429Z,12.70
2022-12-01T17:18:59.878Z,12.77
2022-12-01T17:21:27.870Z,12.43
2022-12-01T17:23:55.641Z,11.82
2022-12-01T17:26:23.984Z,12.57
2022-12-01T17:28:55.279Z,11.30
2022-12-01T17:31:22.830Z,12.45
2022-12-01T17:33:51.649Z,10.60
2022-12-01T17:36:19.242Z,11.65
2022-12-01T17:38:47.938Z,12.10
2022-12-01T17:41:18.706Z,12.40
2022-12-01T17:43:46.563Z,12.20
2022-12-01T17:46:14.544Z,12.15
2022-12-01T17:48:45.705Z,10.90
2022-12-01T17:51:15.227Z,12.20
2022-12-01T17:53:43.572Z,11.70
2022-12-01T17:56:13.874Z,12.88
2022-12-01T17:58:42.488Z,13.45
2022-12-01T18:01:16.068Z,12.48
2022-12-01T18:03:44.689Z,13.05
2022-12-01T18:06:12.953Z,13.32
2022-12-01T18:08:42.086Z,12.32
2022-12-01T18:11:15.835Z,12.63
2022-12-01T18:13:47.006Z,11.55
2022-12-01T18:16:17.486Z,12.77
2022-12-01T18:18:46.015Z,12.70
2022-12-01T18:21:15.549Z,12.27
2022-12-01T18:23:55.143Z,10.75
2022-12-01T18:26:23.568Z,11.77
2022-12-01T18:28:58.749Z,10.07
2022-12-01T18:31:27.033Z,11.40
2022-12-01T18:33:57.431Z,11.00
2022-12-01T18:36:26.184Z,11.43
2022-12-01T18:38:54.620Z,10.68
2022-12-01T18:41:22.415Z,11.63
2022-12-01T18:43:50.535Z,11.27
2022-12-01T18:46:20.089Z,9.88
2022-12-01T18:48:50.690Z,12.45
2022-12-01T18:51:19.613Z,11.45
2022-12-01T18:53:48.250Z,12.43
2022-12-01T18:56:15.746Z,12.00
2022-12-01T18:58:43.541Z,12.35
2022-12-01T19:01:26.515Z,12.07
2022-12-01T19:03:59.481Z,12.18
2022-12-01T19:06:29.545Z,11.73
2022-12-01T19:09:01.831Z,12.30
2022-12-01T19:11:30.138Z,11.68
2022-12-01T19:13:58.058Z,10.98
2022-12-01T19:16:27.055Z,12.05
2022-12-01T19:18:54.966Z,11.60
2022-12-01T19:21:22.366Z,10.10
2022-12-01T19:23:50.293Z,11.20
2022-12-01T19:26:20.446Z,10.57
2022-12-01T19:28:48.435Z,9.73
2022-12-01T19:31:19.652Z,10.00
2022-12-01T19:33:47.786Z,10.07
2022-12-01T19:36:25.096Z,11.07
2022-12-01T19:38:53.228Z,9.82
2022-12-01T19:41:25.334Z,11.07
2022-12-01T19:43:53.991Z,10.93
2022-12-01T19:46:23.671Z,10.63
2022-12-01T19:49:00.428Z,9.52
2022-12-01T19:51:35.542Z,9.57
2022-12-01T19:54:05.942Z,9.52
2022-12-01T19:56:33.973Z,10.18
2022-12-01T19:59:02.296Z,8.75
2022-12-01T20:01:29.824Z,8.88
2022-12-01T20:03:57.704Z,9.68
2022-12-01T20:06:30.212Z,9.45
2022-12-01T20:09:01.040Z,8.82
2022-12-01T20:11:35.638Z,8.43
2022-12-01T20:14:05.984Z,8.23
2022-12-01T20:16:34.209Z,8.98
2022-12-01T20:19:04.326Z,8.55
2022-12-01T20:21:35.662Z,10.02
2022-12-01T20:24:06.673Z,10.48
2022-12-01T20:26:37.581Z,9.88
2022-12-01T20:29:11.939Z,8.93
2022-12-01T20:31:40.967Z,8.95
2022-12-01T20:34:12.160Z,8.93
2022-12-01T20:36:40.848Z,10.43
2022-12-01T20:39:10.170Z,9.23
2022-12-01T20:41:38.605Z,7.70
2022-12-01T20:44:07.856Z,8.35
2022-12-01T20:46:37.069Z,9.05
2022-12-01T20:49:05.618Z,9.20
2022-12-01T20:51:33.698Z,9.27
2022-12-01T20:54:27.277Z,8.52
2022-12-01T20:56:50.912Z,9.23
2022-12-01T20:59:18.499Z,8.90
2022-12-01T21:01:46.105Z,8.93
2022-12-01T21:04:13.926Z,9.48
2022-12-01T21:06:41.419Z,9.35
2022-12-01T21:09:09.299Z,9.55
2022-12-01T21:12:12.821Z,9.90
2022-12-01T21:15:01.595Z,10.48
2022-12-01T21:17:46.681Z,8.65
2022-12-01T21:20:22.191Z,8.45
2022-12-01T21:22:51.549Z,10.23
2022-12-01T21:25:23.166Z,10.50
2022-12-01T21:27:51.243Z,10.40
2022-12-01T21:30:26.555Z,10.98
2022-12-01T21:32:54.415Z,11.63
2022-12-01T21:35:25.198Z,11.45
2022-12-01T21:38:00.809Z,11.55
2022-12-01T21:40:28.835Z,11.63
2022-12-01T21:43:00.610Z,11.60
2022-12-01T21:45:32.397Z,11.75
2022-12-01T21:51:25.655Z,12.10
2022-12-01T21:53:55.921Z,10.65
2022-12-01T21:56:29.111Z,10.93
2022-12-01T21:58:59.684Z,11.60
2022-12-01T22:01:34.906Z,10.82
2022-12-01T22:04:11.256Z,12.43
2022-12-01T22:06:41.310Z,11.98
2022-12-01T22:09:20.188Z,11.95
2022-12-01T22:12:10.826Z,11.98
2022-12-01T22:14:39.312Z,10.13
2022-12-01T22:17:07.050Z,12.05
2022-12-01T22:19:38.311Z,11.90
2022-12-01T22:22:09.204Z,11.27
2022-12-01T22:24:43.896Z,10.65
2022-12-01T22:27:36.142Z,10.77
2022-12-01T22:30:06.834Z,11.23
2022-12-01T22:32:38.388Z,11.18
2022-12-01T22:37:51.250Z,10.75
2022-12-01T22:40:34.885Z,11.45
2022-12-01T22:45:49.478Z,12.25
2022-12-01T22:48:28.246Z,11.50
2022-12-01T22:51:22.362Z,11.68
2022-12-01T22:53:52.036Z,10.35
2022-12-01T22:56:49.991Z,11.43
2022-12-01T22:59:28.389Z,10.80
2022-12-01T23:02:01.589Z,10.10
2022-12-01T23:04:37.885Z,8.98
2022-12-01T23:07:26.091Z,10.05
2022-12-01T23:09:55.779Z,8.60
2022-12-01T23:12:30.398Z,8.80
2022-12-01T23:15:21.973Z,8.00
2022-12-01T23:17:50.388Z,8.40
2022-12-01T23:20:31.119Z,8.05
2022-12-01T23:23:04.896Z,9.38
2022-12-01T23:25:35.352Z,8.98
2022-12-01T23:28:06.469Z,7.90
2022-12-01T23:30:36.016Z,8.00
2022-12-01T23:33:06.856Z,8.90
2022-12-01T23:35:55.253Z,8.20
2022-12-01T23:38:31.684Z,8.98
2022-12-01T23:41:01.958Z,9.48
2022-12-01T23:43:33.315Z,8.82
2022-12-01T23:46:09.926Z,8.10
2022-12-01T23:48:55.799Z,8.50
2022-12-01T23:51:35.583Z,8.48
2022-12-01T23:54:12.941Z,7.28
2022-12-01T23:56:40.728Z,7.90
2022-12-01T23:59:13.794Z,8.73
